createdAt,value
2022-10-12T00:01:12.894Z,85.65
2022-10-12T00:04:22.426Z,84.69
2022-10-12T00:07:30.733Z,84.94
2022-10-12T00:10:42.603Z,85.14
2022-10-12T00:13:51.638Z,85.73
2022-10-12T00:16:59.844Z,85.66
2022-10-12T00:20:10.858Z,85.19
2022-10-12T00:23:19.034Z,84.86
2022-10-12T00:26:30.055Z,85.45
2022-10-12T00:29:39.125Z,85.49
2022-10-12T00:32:47.384Z,85.15
2022-10-12T00:35:57.030Z,85.47
2022-10-12T00:39:09.826Z,85.81
2022-10-12T00:42:21.571Z,85.28
2022-10-12T00:45:30.510Z,86.55
2022-10-12T00:48:40.158Z,85.34
2022-10-12T00:51:54.709Z,85.40
2022-10-12T00:55:04.027Z,86.33
2022-10-12T00:58:12.742Z,85.83
2022-10-12T01:01:21.365Z,85.03
2022-10-12T01:04:32.664Z,85.97
2022-10-12T01:07:42.446Z,84.59
2022-10-12T01:10:50.625Z,84.96
2022-10-12T01:13:59.861Z,84.51
2022-10-12T01:17:23.193Z,84.70
2022-10-12T01:20:48.910Z,85.14
2022-10-12T01:24:35.811Z,84.93
2022-10-12T01:27:51.468Z,85.17
2022-10-12T01:31:07.817Z,85.61
2022-10-12T01:34:28.856Z,86.08
2022-10-12T01:37:49.817Z,85.48
2022-10-12T01:41:08.862Z,85.46
2022-10-12T01:44:22.378Z,84.06
2022-10-12T01:47:33.546Z,84.66
2022-10-12T01:50:51.201Z,84.92
2022-10-12T01:54:11.651Z,84.52
2022-10-12T01:57:29.825Z,84.98
2022-10-12T02:00:49.036Z,84.98
2022-10-12T02:04:08.703Z,85.23
2022-10-12T02:07:27.053Z,84.88
2022-10-12T02:10:41.903Z,84.63
2022-10-12T02:13:57.435Z,84.88
2022-10-12T02:17:11.394Z,85.51
2022-10-12T02:20:26.436Z,85.69
2022-10-12T02:23:37.331Z,85.31
2022-10-12T02:26:51.831Z,85.71
2022-10-12T02:30:00.264Z,85.06
2022-10-12T02:33:15.741Z,85.43
2022-10-12T02:36:35.374Z,84.88
2022-10-12T02:39:51.567Z,85.21
2022-10-12T02:43:11.536Z,85.41
2022-10-12T02:46:24.025Z,85.98
2022-10-12T02:49:36.913Z,86.10
2022-10-12T02:52:49.762Z,86.15
2022-10-12T02:56:04.036Z,86.04
2022-10-12T03:03:58.247Z,85.47
2022-10-12T03:07:06.550Z,85.96
2022-10-12T03:10:16.448Z,85.90
2022-10-12T03:13:24.728Z,85.63
2022-10-12T03:16:32.901Z,86.41
2022-10-12T03:19:41.085Z,86.02
2022-10-12T03:22:49.942Z,86.05
2022-10-12T03:25:59.567Z,85.73
2022-10-12T03:29:09.232Z,86.34
2022-10-12T03:32:17.565Z,86.41
2022-10-12T03:35:25.759Z,86.21
2022-10-12T03:38:34.138Z,86.07
2022-10-12T03:41:43.946Z,85.93
2022-10-12T03:44:52.232Z,86.03
2022-10-12T03:48:04.738Z,86.34
2022-10-12T03:51:13.661Z,85.89
2022-10-12T03:54:21.959Z,86.66
2022-10-12T03:57:31.825Z,85.34
2022-10-12T04:00:40.652Z,86.00
2022-10-12T04:03:49.003Z,86.22
2022-10-12T04:06:57.225Z,86.48
2022-10-12T04:10:07.645Z,86.52
2022-10-12T04:16:59.237Z,86.20
2022-10-12T04:20:08.951Z,86.40
2022-10-12T04:23:17.807Z,85.98
2022-10-12T04:26:26.010Z,86.34
2022-10-12T04:29:34.600Z,85.80
2022-10-12T04:32:44.224Z,85.86
2022-10-12T04:35:52.364Z,86.36
2022-10-12T04:39:01.312Z,86.18
2022-10-12T04:42:10.022Z,86.16
2022-10-12T04:45:18.301Z,85.91
2022-10-12T04:48:29.015Z,85.87
2022-10-12T04:51:37.445Z,84.79
2022-10-12T04:54:45.912Z,85.85
2022-10-12T04:57:54.340Z,86.44
2022-10-12T05:01:02.981Z,86.66
2022-10-12T05:04:12.821Z,86.63
2022-10-12T05:07:21.133Z,85.86
2022-10-12T05:10:29.993Z,86.19
2022-10-12T05:13:38.490Z,86.72
2022-10-12T05:16:47.041Z,87.06
2022-10-12T05:19:59.236Z,86.24
2022-10-12T05:23:07.991Z,85.89
2022-10-12T05:26:16.589Z,85.40
2022-10-12T05:29:24.919Z,85.79
2022-10-12T05:32:33.824Z,86.28
2022-10-12T05:35:48.134Z,85.61
2022-10-12T05:38:58.017Z,85.97
2022-10-12T05:42:06.971Z,85.21
2022-10-12T05:45:15.329Z,85.86
2022-10-12T05:48:23.895Z,85.67
2022-10-12T05:51:33.682Z,85.89
2022-10-12T05:54:42.208Z,85.89
2022-10-12T05:57:51.922Z,85.99
2022-10-12T06:01:07.943Z,86.01
2022-10-12T06:04:16.179Z,85.60
2022-10-12T06:07:26.062Z,86.28
2022-10-12T06:10:34.543Z,85.49
2022-10-12T06:13:42.878Z,85.05
2022-10-12T06:16:54.452Z,85.14
2022-10-12T06:20:03.026Z,85.07
2022-10-12T06:23:12.745Z,83.84
2022-10-12T06:26:21.275Z,83.71
2022-10-12T06:29:29.682Z,83.19
2022-10-12T06:32:38.281Z,83.49
2022-10-12T06:35:47.415Z,83.58
2022-10-12T06:38:57.126Z,83.43
2022-10-12T06:42:05.593Z,83.50
2022-10-12T06:45:14.392Z,84.40
2022-10-12T06:48:22.881Z,84.48
2022-10-12T06:51:31.145Z,84.02
2022-10-12T06:54:41.411Z,84.19
2022-10-12T06:57:49.732Z,84.07
2022-10-12T07:00:58.206Z,83.68
2022-10-12T07:04:07.029Z,83.00
2022-10-12T07:07:15.316Z,82.62
2022-10-12T07:10:25.434Z,82.27
2022-10-12T07:13:34.699Z,82.23
2022-10-12T07:16:42.853Z,80.67
2022-10-12T07:19:51.059Z,80.22
2022-10-12T07:22:59.204Z,79.81
2022-10-12T07:26:09.627Z,79.67
2022-10-12T07:29:17.923Z,80.11
2022-10-12T07:32:26.286Z,79.65
2022-10-12T07:35:34.565Z,78.94
2022-10-12T07:38:45.063Z,79.35
2022-10-12T07:41:55.798Z,78.08
2022-10-12T07:45:06.136Z,77.93
2022-10-12T07:48:14.351Z,77.82
2022-10-12T07:51:22.837Z,78.67
2022-10-12T07:54:32.947Z,77.91
2022-10-12T07:57:44.353Z,78.07
2022-10-12T08:00:53.407Z,80.19
2022-10-12T08:04:02.634Z,81.09
2022-10-12T08:07:10.980Z,81.05
2022-10-12T08:10:20.024Z,81.47
2022-10-12T08:13:29.787Z,81.51
2022-10-12T08:16:38.558Z,80.26
2022-10-12T08:19:46.979Z,80.05
2022-10-12T08:22:55.871Z,78.18
2022-10-12T08:26:06.124Z,79.79
2022-10-12T08:29:16.657Z,80.41
2022-10-12T08:32:25.743Z,79.85
2022-10-12T08:35:34.155Z,79.07
2022-10-12T08:38:43.585Z,77.97
2022-10-12T08:42:09.543Z,78.21
2022-10-12T08:45:45.026Z,77.41
2022-10-12T08:49:01.775Z,78.26
2022-10-12T08:52:28.153Z,78.25
2022-10-12T08:55:42.277Z,77.67
2022-10-12T08:58:53.366Z,75.54
2022-10-12T09:02:34.569Z,74.66
2022-10-12T09:05:51.625Z,72.46
2022-10-12T09:09:11.575Z,73.68
2022-10-12T09:12:40.678Z,72.97
2022-10-12T09:15:54.901Z,72.79
2022-10-12T09:19:14.960Z,72.09
2022-10-12T09:22:23.188Z,71.24
2022-10-12T09:25:31.849Z,69.49
2022-10-12T09:28:45.281Z,68.48
2022-10-12T09:32:32.500Z,67.49
2022-10-12T09:35:45.373Z,68.29
2022-10-12T09:38:54.784Z,68.15
2022-10-12T09:42:03.552Z,69.11
2022-10-12T09:45:19.184Z,67.17
2022-10-12T09:48:27.808Z,67.24
2022-10-12T09:51:38.308Z,66.91
2022-10-12T09:54:50.457Z,66.62
2022-10-12T09:58:03.009Z,66.51
2022-10-12T10:01:25.528Z,66.80
2022-10-12T10:04:34.283Z,67.25
2022-10-12T10:07:44.121Z,67.08
2022-10-12T10:10:54.490Z,66.67
2022-10-12T10:14:03.725Z,67.64
2022-10-12T10:17:17.299Z,68.87
2022-10-12T10:20:33.072Z,65.78
2022-10-12T10:23:51.216Z,67.88
2022-10-12T10:27:02.438Z,64.70
2022-10-12T10:30:30.803Z,64.43
2022-10-12T10:33:41.338Z,64.85
2022-10-12T10:36:53.726Z,65.64
2022-10-12T10:40:04.919Z,65.65
2022-10-12T10:43:26.091Z,65.52
2022-10-12T10:46:37.407Z,66.63
2022-10-12T10:49:51.177Z,65.91
2022-10-12T10:53:04.002Z,64.65
2022-10-12T10:56:21.853Z,65.51
2022-10-12T10:59:52.192Z,64.09
2022-10-12T11:03:07.647Z,63.49
2022-10-12T11:06:31.979Z,63.15
2022-10-12T11:09:45.432Z,61.87
2022-10-12T11:13:04.576Z,61.88
2022-10-12T11:16:30.356Z,62.87
2022-10-12T11:19:47.978Z,62.99
2022-10-12T11:23:03.546Z,64.22
2022-10-12T11:26:24.377Z,64.04
2022-10-12T11:29:37.697Z,63.68
2022-10-12T11:32:50.960Z,66.23
2022-10-12T11:36:01.080Z,66.36
2022-10-12T11:39:22.684Z,66.06
2022-10-12T11:42:43.366Z,64.35
2022-10-12T11:45:59.422Z,64.56
2022-10-12T11:49:17.181Z,63.52
2022-10-12T11:52:29.234Z,63.43
2022-10-12T11:56:00.822Z,63.34
2022-10-12T11:59:20.850Z,64.23
2022-10-12T12:02:39.614Z,63.95
2022-10-12T12:05:48.429Z,63.48
2022-10-12T12:09:08.351Z,63.50
2022-10-12T12:12:22.773Z,63.17
2022-10-12T12:15:31.306Z,63.69
2022-10-12T12:19:17.101Z,63.93
2022-10-12T12:22:47.660Z,64.06
2022-10-12T12:26:17.264Z,63.70
2022-10-12T12:29:30.003Z,64.26
2022-10-12T12:32:48.803Z,64.11
2022-10-12T12:36:03.789Z,63.94
2022-10-12T12:39:26.120Z,63.95
2022-10-12T12:42:36.141Z,64.13
2022-10-12T12:45:57.845Z,64.06
2022-10-12T12:49:27.127Z,63.41
2022-10-12T12:52:40.919Z,63.05
2022-10-12T12:56:06.437Z,64.62
2022-10-12T13:00:11.659Z,64.14
2022-10-12T13:04:16.926Z,64.34
2022-10-12T13:07:54.518Z,63.67
2022-10-12T13:11:37.720Z,63.51
2022-10-12T13:15:08.085Z,64.00
2022-10-12T13:18:58.862Z,65.17
2022-10-12T13:22:18.337Z,65.78
2022-10-12T13:25:36.965Z,65.77
2022-10-12T13:28:50.471Z,66.28
2022-10-12T13:32:07.512Z,65.45
2022-10-12T13:35:31.905Z,65.70
2022-10-12T13:38:40.362Z,65.84
2022-10-12T13:41:54.639Z,65.74
2022-10-12T13:45:09.304Z,66.99
2022-10-12T13:48:39.796Z,68.63
2022-10-12T13:51:52.199Z,68.23
2022-10-12T13:55:01.905Z,68.04
2022-10-12T13:58:25.541Z,68.08
2022-10-12T14:01:35.533Z,68.65
2022-10-12T14:04:45.005Z,69.54
2022-10-12T14:07:57.537Z,69.86
2022-10-12T14:11:07.713Z,70.33
2022-10-12T14:14:29.671Z,70.97
2022-10-12T14:17:44.842Z,71.49
2022-10-12T14:21:06.858Z,72.15
2022-10-12T14:24:20.591Z,71.87
2022-10-12T14:27:30.577Z,72.37
2022-10-12T14:30:54.431Z,72.56
2022-10-12T14:34:25.203Z,72.09
2022-10-12T14:37:33.944Z,72.17
2022-10-12T14:40:42.451Z,72.03
2022-10-12T14:44:10.457Z,72.24
2022-10-12T14:47:25.145Z,72.02
2022-10-12T14:50:34.350Z,72.80
2022-10-12T14:53:42.714Z,72.86
2022-10-12T14:56:51.138Z,73.44
2022-10-12T15:00:00.216Z,74.10
2022-10-12T15:03:10.350Z,74.06
2022-10-12T15:06:18.768Z,73.99
2022-10-12T15:09:27.323Z,73.89
2022-10-12T15:12:36.135Z,73.28
2022-10-12T15:15:48.463Z,72.98
2022-10-12T15:18:58.808Z,72.11
2022-10-12T15:22:08.045Z,72.37
2022-10-12T15:25:25.089Z,73.49
2022-10-12T15:28:33.793Z,73.36
2022-10-12T15:31:47.691Z,73.59
2022-10-12T15:35:01.552Z,74.00
2022-10-12T15:38:11.913Z,73.45
2022-10-12T15:41:26.949Z,73.34
2022-10-12T15:44:41.963Z,73.09
2022-10-12T15:47:52.269Z,73.27
2022-10-12T15:51:02.303Z,73.61
2022-10-12T15:54:12.144Z,73.76
2022-10-12T15:57:20.737Z,74.03
2022-10-12T16:00:33.107Z,73.96
2022-10-12T16:03:42.724Z,74.24
2022-10-12T16:06:52.402Z,74.35
2022-10-12T16:10:00.900Z,74.50
2022-10-12T16:13:13.080Z,74.52
2022-10-12T16:16:22.320Z,74.53
2022-10-12T16:19:30.749Z,74.72
2022-10-12T16:22:42.443Z,75.44
2022-10-12T16:25:51.454Z,74.72
2022-10-12T16:29:00.610Z,74.39
2022-10-12T16:32:09.294Z,75.22
2022-10-12T16:35:18.248Z,75.33
2022-10-12T16:38:28.050Z,75.31
2022-10-12T16:41:36.446Z,75.68
2022-10-12T16:44:45.656Z,75.71
2022-10-12T16:47:54.729Z,76.00
2022-10-12T16:51:08.051Z,75.94
2022-10-12T16:54:17.919Z,75.94
2022-10-12T16:57:26.464Z,75.73
2022-10-12T17:00:34.977Z,76.00
2022-10-12T17:03:43.981Z,75.37
2022-10-12T17:06:54.249Z,75.99
2022-10-12T17:10:04.744Z,75.01
2022-10-12T17:13:14.685Z,75.04
2022-10-12T17:16:41.292Z,75.76
2022-10-12T17:19:50.172Z,75.62
2022-10-12T17:22:59.660Z,75.81
2022-10-12T17:26:09.408Z,75.48
2022-10-12T17:29:19.770Z,75.41
2022-10-12T17:32:28.410Z,75.71
2022-10-12T17:35:42.154Z,76.74
2022-10-12T17:38:50.783Z,75.99
2022-10-12T17:42:01.183Z,76.66
2022-10-12T17:45:10.741Z,76.47
2022-10-12T17:48:19.013Z,75.96
2022-10-12T17:51:31.616Z,76.31
2022-10-12T17:54:40.220Z,76.68
2022-10-12T17:57:50.070Z,76.88
2022-10-12T18:00:58.818Z,76.98
2022-10-12T18:04:07.398Z,77.44
2022-10-12T18:07:16.304Z,77.75
2022-10-12T18:10:27.785Z,78.25
2022-10-12T18:13:39.793Z,77.70
2022-10-12T18:16:48.860Z,78.01
2022-10-12T18:19:57.644Z,78.33
2022-10-12T18:23:06.785Z,79.17
2022-10-12T18:26:22.146Z,80.25
2022-10-12T18:29:32.028Z,80.33
2022-10-12T18:32:40.726Z,80.94
2022-10-12T18:35:49.073Z,81.75
2022-10-12T18:38:58.615Z,81.81
2022-10-12T18:42:07.180Z,82.12
2022-10-12T18:45:17.093Z,80.87
2022-10-12T18:48:26.011Z,82.01
2022-10-12T18:51:37.512Z,82.66
2022-10-12T18:54:47.692Z,83.74
2022-10-12T18:57:56.709Z,84.55
2022-10-12T19:01:10.735Z,84.39
2022-10-12T19:04:21.769Z,84.49
2022-10-12T19:07:30.383Z,84.98
2022-10-12T19:10:41.875Z,85.12
2022-10-12T19:13:54.476Z,85.00
2022-10-12T19:17:04.174Z,85.08
2022-10-12T19:20:13.267Z,85.81
2022-10-12T19:23:21.892Z,85.99
2022-10-12T19:26:31.286Z,85.57
2022-10-12T19:29:43.568Z,85.48
2022-10-12T19:32:55.892Z,85.36
2022-10-12T19:36:05.717Z,85.92
2022-10-12T19:39:17.575Z,85.64
2022-10-12T19:42:26.026Z,85.62
2022-10-12T19:45:40.790Z,85.99
2022-10-12T19:48:53.730Z,85.65
2022-10-12T19:52:03.546Z,85.93
2022-10-12T19:55:12.425Z,86.43
2022-10-12T19:58:21.569Z,85.92
2022-10-12T20:01:33.710Z,85.86
2022-10-12T20:04:44.500Z,86.08
2022-10-12T20:07:53.168Z,85.87
2022-10-12T20:11:01.788Z,85.85
2022-10-12T20:14:12.178Z,85.82
2022-10-12T20:17:20.755Z,85.38
2022-10-12T20:20:31.744Z,85.72
2022-10-12T20:23:43.288Z,86.25
2022-10-12T20:26:53.073Z,86.88
2022-10-12T20:30:04.098Z,86.38
2022-10-12T20:33:12.654Z,86.42
2022-10-12T20:36:27.980Z,86.75
2022-10-12T20:39:36.556Z,86.34
2022-10-12T20:42:46.100Z,85.93
2022-10-12T20:45:54.980Z,86.47
2022-10-12T20:49:05.714Z,86.26
2022-10-12T20:52:15.747Z,86.50
2022-10-12T20:55:25.110Z,86.70
2022-10-12T20:58:33.503Z,86.88
2022-10-12T21:01:42.040Z,86.39
2022-10-12T21:04:51.355Z,85.84
2022-10-12T21:08:01.511Z,86.03
2022-10-12T21:11:11.851Z,86.17
2022-10-12T21:14:20.070Z,86.29
2022-10-12T21:17:28.247Z,86.56
2022-10-12T21:20:36.663Z,86.38
2022-10-12T21:23:53.148Z,87.07
2022-10-12T21:27:01.396Z,87.21
2022-10-12T21:30:10.983Z,86.42
2022-10-12T21:33:19.907Z,86.81
2022-10-12T21:36:30.366Z,86.34
2022-10-12T21:39:40.213Z,86.70
2022-10-12T21:42:48.748Z,86.89
2022-10-12T21:45:57.361Z,86.12
2022-10-12T21:49:08.265Z,86.38
2022-10-12T21:52:16.730Z,86.34
2022-10-12T21:55:26.794Z,87.09
2022-10-12T21:58:35.495Z,86.88
2022-10-12T22:01:43.982Z,86.72
2022-10-12T22:04:52.176Z,86.56
2022-10-12T22:08:00.842Z,86.53
2022-10-12T22:11:13.762Z,86.40
2022-10-12T22:14:22.059Z,87.12
2022-10-12T22:17:30.318Z,86.65
2022-10-12T22:20:39.786Z,86.93
2022-10-12T22:23:48.450Z,86.74
2022-10-12T22:26:58.536Z,87.15
2022-10-12T22:30:08.392Z,87.04
2022-10-12T22:33:16.929Z,87.29
2022-10-12T22:36:25.748Z,87.05
2022-10-12T22:39:34.212Z,87.45
2022-10-12T22:42:44.063Z,87.04
2022-10-12T22:45:52.533Z,87.11
2022-10-12T22:49:02.734Z,87.18
2022-10-12T22:52:11.701Z,87.41
2022-10-12T22:55:20.271Z,87.20
2022-10-12T22:58:30.907Z,87.64
2022-10-12T23:01:39.427Z,88.40
2022-10-12T23:04:49.449Z,87.60
2022-10-12T23:07:58.078Z,88.03
2022-10-12T23:11:08.564Z,87.98
2022-10-12T23:14:18.266Z,88.02
2022-10-12T23:17:26.533Z,87.38
2022-10-12T23:20:35.053Z,87.83
2022-10-12T23:23:45.410Z,87.86
2022-10-12T23:26:53.908Z,87.50
2022-10-12T23:30:03.630Z,88.14
2022-10-12T23:33:11.836Z,88.18
2022-10-12T23:36:20.294Z,87.46
2022-10-12T23:39:28.532Z,87.98
2022-10-12T23:42:36.960Z,87.92
2022-10-12T23:45:47.205Z,88.02
2022-10-12T23:48:55.848Z,88.31
2022-10-12T23:52:04.184Z,88.54
2022-10-12T23:55:12.633Z,87.90
2022-10-12T23:58:22.434Z,87.84
